ePrivacy and GPDR Cookie Consent by Cookie Consent
EmailTwitter


Observations de surface / France / LFPO (07149)

Régions: Québec | Canada | États-Unis | Europe | France | UK | Ailleurs
Station
Affichage
Infos & localisation pour LFPO (07149) | Aide pour décoder les METARs

Observations prises le 2022-01-21 à 06H00 UTC à PARIS/ORLY, FR (LFPO)

Etat du ciel: partiellement nuageux.

Température: 3.0 Celsius

Point de rosée: 1.0 Celsius

Humidité relative: 87%

Facteur vent 0.

Vents: Nord à 13 km/h ou 7 noeuds.

Pression au niveau moyen de la mer: 103.60 kilopascals.

Visibilité horizontale: 6.21 milles terrestres ou 9.94 kilomètres.

Hauteur du plafond: 1250 mètres ( 4100 pieds ).

Observation METAR:

LFPO 210600Z 36007KT 330V030 9999 FEW013 BKN041 03/01 Q1036 TEMPO BKN008=